Robin B Ingram — WDB9002 — position and weather

sailwx.info

Track history (hours):
 
Tides and Currents Weather Stations Pressure Air Temp Water Temp Dewpoint Dewpoint Depression Visibility Wind Speed Wind Dir Waves Ship Positions

Robin B Ingram

Owner: Ingram Barge Company LLC, Nashville, TN. More information available from US FCC via Universal Licensing System and Coast Guard Vessel Documentation Center.

Last reported at 2018-Jan-12 12:50 UTC. Time now 2018-Jan-18 07:58 UTC.
Position N 38°32' W 090°15'.

Length 39 m; draft 2.7 m.

Type: Towing. MMSI: 366967670.

Date/timePositionNaut miles runAvg speedWind from/ knotsBaromVisibWave heightAir tempDewpointWater temp
2018-Jan-12 12:50N 38°32' W 090°15'0 0.2
2018-Jan-12 12:30N 38°32' W 090°15'0 0.0
2018-Jan-12 12:00N 38°32' W 090°15'0 0.0
2018-Jan-12 11:29N 38°32' W 090°15'0 0.0
2018-Jan-12 10:59N 38°32' W 090°15'0 0.2
2018-Jan-12 10:22N 38°32' W 090°15'0 0.8
2018-Jan-12 10:00N 38°32' W 090°15'0 0.0
2018-Jan-12 09:28N 38°32' W 090°15'0 0.0
2018-Jan-12 09:00N 38°32' W 090°15'0 0.0
2018-Jan-12 08:26N 38°32' W 090°15'0 0.0
2018-Jan-12 07:45N 38°32' W 090°15'0 0.0
2018-Jan-12 07:29N 38°32' W 090°15'0 0.0
2018-Jan-12 06:59N 38°32' W 090°15'0 0.0
2018-Jan-12 06:28N 38°32' W 090°15'0 0.0
2018-Jan-12 05:56N 38°32' W 090°15'0 0.0
2018-Jan-12 05:29N 38°32' W 090°15'4 1.9
2018-Jan-12 03:35N 38°35' W 090°12'2 7.6
2018-Jan-12 03:16N 38°37' W 090°11'2 9.2
2018-Jan-12 03:00N 38°40' W 090°11'2 3.5
2018-Jan-12 02:20N 38°42' W 090°11'0 0.9
2018-Jan-12 01:57N 38°42' W 090°11'2 3.5
2018-Jan-12 01:26N 38°44' W 090°10'2 3.6
2018-Jan-12 00:53N 38°46' W 090°08'1 3.3
2018-Jan-12 00:30N 38°47' W 090°08'3 5.5
2018-Jan-12 00:00N 38°49' W 090°07'3 6.0
2018-Jan-11 23:30N 38°52' W 090°09'0 0.6
2018-Jan-11 23:00N 38°52' W 090°09'0 0.2
2018-Jan-11 22:30N 38°52' W 090°09'0 0.1
2018-Jan-11 22:00N 38°52' W 090°09'0 0.3
2018-Jan-11 21:30N 38°52' W 090°09'0 0.0
2018-Jan-11 21:00N 38°52' W 090°09'0 0.0
2018-Jan-11 20:30N 38°52' W 090°09'0 0.0
2018-Jan-11 20:00N 38°52' W 090°09'0 0.1
2018-Jan-11 19:31N 38°52' W 090°09'0 0.0
2018-Jan-11 19:00N 38°52' W 090°09'0 0.1
2018-Jan-11 18:30N 38°52' W 090°09'1 1.9
2018-Jan-11 18:00N 38°53' W 090°10'3 5.6
2018-Jan-11 17:30N 38°54' W 090°13'1 2.3
2018-Jan-11 17:00N 38°55' W 090°14'0 0.0
2018-Jan-11 16:30N 38°55' W 090°14'0 0.1
2018-Jan-11 16:00N 38°55' W 090°14'0 0.2
2018-Jan-11 15:30N 38°55' W 090°14'1 2.2
2018-Jan-11 15:00N 38°55' W 090°16'3 5.7
2018-Jan-11 14:30N 38°56' W 090°20'3 5.3
2018-Jan-11 14:00N 38°57' W 090°22'2 4.4
2018-Jan-11 13:30N 38°58' W 090°25'2 4.7
2018-Jan-11 13:00N 38°58' W 090°28'3 5.5
2018-Jan-11 12:31N 38°57' W 090°31'3 5.3
2018-Jan-11 12:00N 38°59' W 090°34'3 5.3
2018-Jan-11 11:30N 39°02' W 090°34'2 4.0
2018-Jan-11 11:00N 39°04' W 090°35'3 5.1
2018-Jan-11 10:30N 39°06' W 090°36'3 5.3
2018-Jan-11 10:00N 39°09' W 090°37'2 4.4
2018-Jan-11 09:30N 39°11' W 090°36'  
Track history (hours):
 
Tides and Currents Weather Stations Pressure Air Temp Water Temp Dewpoint Dewpoint Depression Visibility Wind Speed Wind Dir Waves Ship Positions

Robin B Ingram

Owner: Ingram Barge Company LLC, Nashville, TN. More information available from US FCC via Universal Licensing System and Coast Guard Vessel Documentation Center.

Last reported at 2018-Jan-12 12:50 UTC. Time now 2018-Jan-18 07:58 UTC.
Position N 38°32' W 090°15'.

Length 39 m; draft 2.7 m.

Type: Towing. MMSI: 366967670.

Date/timePositionNaut miles runAvg speedWind from/ knotsBaromVisibWave heightAir tempDewpointWater temp
2018-Jan-12 12:50N 38°32' W 090°15'0 0.2
2018-Jan-12 12:30N 38°32' W 090°15'0 0.0
2018-Jan-12 12:00N 38°32' W 090°15'0 0.0
2018-Jan-12 11:29N 38°32' W 090°15'0 0.0
2018-Jan-12 10:59N 38°32' W 090°15'0 0.2
2018-Jan-12 10:22N 38°32' W 090°15'0 0.8
2018-Jan-12 10:00N 38°32' W 090°15'0 0.0
2018-Jan-12 09:28N 38°32' W 090°15'0 0.0
2018-Jan-12 09:00N 38°32' W 090°15'0 0.0
2018-Jan-12 08:26N 38°32' W 090°15'0 0.0
2018-Jan-12 07:45N 38°32' W 090°15'0 0.0
2018-Jan-12 07:29N 38°32' W 090°15'0 0.0
2018-Jan-12 06:59N 38°32' W 090°15'0 0.0
2018-Jan-12 06:28N 38°32' W 090°15'0 0.0
2018-Jan-12 05:56N 38°32' W 090°15'0 0.0
2018-Jan-12 05:29N 38°32' W 090°15'4 1.9
2018-Jan-12 03:35N 38°35' W 090°12'2 7.6
2018-Jan-12 03:16N 38°37' W 090°11'2 9.2
2018-Jan-12 03:00N 38°40' W 090°11'2 3.5
2018-Jan-12 02:20N 38°42' W 090°11'0 0.9
2018-Jan-12 01:57N 38°42' W 090°11'2 3.5
2018-Jan-12 01:26N 38°44' W 090°10'2 3.6
2018-Jan-12 00:53N 38°46' W 090°08'1 3.3
2018-Jan-12 00:30N 38°47' W 090°08'3 5.5
2018-Jan-12 00:00N 38°49' W 090°07'3 6.0
2018-Jan-11 23:30N 38°52' W 090°09'0 0.6
2018-Jan-11 23:00N 38°52' W 090°09'0 0.2
2018-Jan-11 22:30N 38°52' W 090°09'0 0.1
2018-Jan-11 22:00N 38°52' W 090°09'0 0.3
2018-Jan-11 21:30N 38°52' W 090°09'0 0.0
2018-Jan-11 21:00N 38°52' W 090°09'0 0.0
2018-Jan-11 20:30N 38°52' W 090°09'0 0.0
2018-Jan-11 20:00N 38°52' W 090°09'0 0.1
2018-Jan-11 19:31N 38°52' W 090°09'0 0.0
2018-Jan-11 19:00N 38°52' W 090°09'0 0.1
2018-Jan-11 18:30N 38°52' W 090°09'1 1.9
2018-Jan-11 18:00N 38°53' W 090°10'3 5.6
2018-Jan-11 17:30N 38°54' W 090°13'1 2.3
2018-Jan-11 17:00N 38°55' W 090°14'0 0.0
2018-Jan-11 16:30N 38°55' W 090°14'0 0.1
2018-Jan-11 16:00N 38°55' W 090°14'0 0.2
2018-Jan-11 15:30N 38°55' W 090°14'1 2.2
2018-Jan-11 15:00N 38°55' W 090°16'3 5.7
2018-Jan-11 14:30N 38°56' W 090°20'3 5.3
2018-Jan-11 14:00N 38°57' W 090°22'2 4.4
2018-Jan-11 13:30N 38°58' W 090°25'2 4.7
2018-Jan-11 13:00N 38°58' W 090°28'3 5.5
2018-Jan-11 12:31N 38°57' W 090°31'3 5.3
2018-Jan-11 12:00N 38°59' W 090°34'3 5.3
2018-Jan-11 11:30N 39°02' W 090°34'2 4.0
2018-Jan-11 11:00N 39°04' W 090°35'3 5.1
2018-Jan-11 10:30N 39°06' W 090°36'3 5.3
2018-Jan-11 10:00N 39°09' W 090°37'2 4.4
2018-Jan-11 09:30N 39°11' W 090°36'  

Dump ship's entire track history